Aeroboteco Virtual Airlines! Uma nuvem a frente.



 INFORMAÇÕES METEOROLÓGICAS
METAR FOR MRLB
ADDS - METARS form results

(1618 UTC 28 January 2021)
Data provider http://aviationweather.gov/metar/data/
 
METAR text: MRLB 281600Z 09028G38KT CAVOK 29/17 A2987
Conditions at: MRLB (LIBERIA/TOMAS G , CR) observed 1600 UTC 28 January 2021
Temperature: 29.0°C (84°F)
Dewpoint: 17.0°C (63°F) [RH = 48%]
Pressure (altimeter): 29.87 inches Hg (1011.6 mb)
Winds: from the E (90 degrees) at 32 MPH (28 knots; 14.4 m/s)
gusting to 44 MPH (38 knots; 19.5 m/s)
Visibility: 6 or more miles (10+ km)
Ceiling: ceiling and visibility are OK
Clouds: unknown
Weather: no significant weather observed at this time

METAR text: MRLB 281542Z COR 09030G42KT CAVOK 29/18 A2986
Conditions at: MRLB (LIBERIA/TOMAS G , CR) observed 1542 UTC 28 January 2021
Temperature: 29.0°C (84°F)
Dewpoint: 18.0°C (64°F) [RH = 52%]
Pressure (altimeter): 29.86 inches Hg (1011.3 mb)
Winds: from the E (90 degrees) at 34 MPH (30 knots; 15.4 m/s)
gusting to 48 MPH (42 knots; 21.6 m/s)
Visibility: 6 or more miles (10+ km)
Ceiling: ceiling and visibility are OK
Clouds: unknown
Weather: no significant weather observed at this time

Forecast for: MRLB (LIBERIA/TOMAS G , CR)
Text: MRLB 281600Z 2816/2912 09019KT CAVOK TX34/2820Z TN20/2912Z
Forecast period: 1600 UTC 28 January 2021 to 1200 UTC 29 January 2021
Forecast type: FROM: standard forecast or significant change
Winds: from the E (90 degrees) at 22 MPH (19 knots; 9.8 m/s)
Visibility: 6 or more miles (10+ km)
Ceiling: unknown
Clouds: missing
Weather: no significant weather forecast for this period
Text: TEMPO 2811/2814 12009KT
Forecast period: 1100 to 1400 UTC 28 January 2021
Forecast type: TEMPORARY: The following changes expected for less than half the time period
Winds: from the ESE (120 degrees) at 10 MPH (9 knots; 4.6 m/s)
Visibility: missing
Ceiling: unknown
Clouds: missing
Weather: no significant weather forecast for this period
Text: TEMPO 2816/2907 09025G35KT
Forecast period: 1600 UTC 28 January 2021 to 0700 UTC 29 January 2021
Forecast type: TEMPORARY: The following changes expected for less than half the time period
Winds: from the E (90 degrees) at 29 MPH (25 knots; 12.9 m/s)
gusting to 40 MPH (35 knots; 18.0 m/s)
Visibility: missing
Ceiling: unknown
Clouds: missing
Weather: no significant weather forecast for this period

 MAPA DO AEROPORTO

 INFORMAÇÕES DA PISTA
Pista 07 Tamanho da pista 9022 ft Largura da pista 148 ft
Elevação da pista 249 ft Ranhura da pista 0 ft Proa da pista 70
Pista 25 Tamanho da pista 9022 ft Largura da pista 148 ft
Elevação da pista 269 ft Ranhura da pista 0 ft Proa da pista 250

 FREQUÊNCIAS DO AEROPORTO
Tipo APP Nome LIBERIA AP Frequência 119.8 MHZ
Tipo GND Nome GND Frequência 121.7 MHZ
Tipo RDO Nome COCO RDO Frequência 126.8 MHZ
Tipo TWR Nome LIBERIA TW Frequência 118.8 MHZ

 AUXÍLIOS DE NAVEGAÇÃO PRÓXIMOS AO AEROPORTO
Tipo VOR-DME Nome Liberia Frequência 112800 KHZ